Time;durP1;ratioP1;P1;durP2;ratioP2;P2;SDS_P1;SDS_P2;PMS_P1;PMS_P2;Temp;Humidity;BMP_temperature;BMP_pressure;BME280_temperature;BME280_humidity;BME280_pressure;Samples;Min_cycle;Max_cycle;Signal;HPM_P1;HPM_P2
2023/07/21 00:00:58;;;;;;;2.08;1.48;;;;;;;15.81;82.13;101334.22;5036876;28;20087;-84
2023/07/21 00:03:24;;;;;;;1.40;1.30;;;;;;;15.80;82.47;101334.31;5054233;28;20056;-84
2023/07/21 00:05:49;;;;;;;2.60;1.40;;;;;;;15.78;82.73;101330.91;5036450;28;20441;-84
2023/07/21 00:08:15;;;;;;;1.65;1.55;;;;;;;15.74;83.14;101328.41;5037133;28;20108;-84
2023/07/21 00:10:42;;;;;;;3.78;1.90;;;;;;;15.73;82.87;101326.69;5036388;28;20025;-84
2023/07/21 00:13:08;;;;;;;1.80;1.70;;;;;;;15.70;83.07;101326.00;5054811;28;20060;-84
2023/07/21 00:15:34;;;;;;;1.95;1.85;;;;;;;15.67;83.40;101323.53;5036143;28;20332;-84
2023/07/21 00:17:59;;;;;;;1.63;1.52;;;;;;;15.66;83.30;101321.81;5054640;28;20045;-84
2023/07/21 00:20:25;;;;;;;1.60;1.50;;;;;;;15.64;83.41;101324.53;5036359;28;20070;-84
2023/07/21 00:22:51;;;;;;;1.85;1.75;;;;;;;15.62;83.54;101330.84;5036579;28;20036;-84
2023/07/21 00:25:17;;;;;;;2.05;1.67;;;;;;;15.59;83.67;101328.34;5037300;28;20239;-84
2023/07/21 00:27:43;;;;;;;1.88;1.77;;;;;;;15.59;84.16;101325.72;5040223;28;20044;-84
2023/07/21 00:30:10;;;;;;;1.90;1.80;;;;;;;15.57;83.97;101323.16;5058990;28;20359;-84
2023/07/21 00:32:36;;;;;;;2.42;1.85;;;;;;;15.55;84.07;101323.25;5040044;28;20203;-85
2023/07/21 00:35:08;;;;;;;2.17;1.98;;;;;;;15.53;84.36;101327.78;5040158;28;20059;-84
2023/07/21 00:37:36;;;;;;;2.40;2.20;;;;;;;15.52;84.27;101319.94;5039634;28;20029;-84
2023/07/21 00:40:05;;;;;;;;;;;;;;;15.49;84.70;101325.38;5059041;28;20040;-84
2023/07/21 00:42:31;;;;;;;3.55;2.58;;;;;;;15.48;84.76;101328.94;5039411;28;20212;-84
2023/07/21 00:44:57;;;;;;;2.20;2.10;;;;;;;15.46;84.95;101323.75;5040352;28;20020;-84
2023/07/21 00:47:27;;;;;;;6.00;2.00;;;;;;;15.45;85.19;101308.00;5039139;28;20068;-84
2023/07/21 00:49:53;;;;;;;2.03;1.85;;;;;;;15.43;85.49;101313.34;5040042;28;20104;-84
2023/07/21 00:52:19;;;;;;;2.25;2.08;;;;;;;15.41;85.46;101302.03;5039365;28;20029;-84
2023/07/21 00:54:46;;;;;;;2.33;2.10;;;;;;;15.40;85.88;101307.38;5057906;28;20060;-84
2023/07/21 00:57:11;;;;;;;4.90;2.25;;;;;;;15.38;86.01;101306.63;5039847;28;20104;-84
2023/07/21 00:59:38;;;;;;;2.58;2.30;;;;;;;15.36;85.99;101306.69;5039121;28;20036;-84
2023/07/21 01:02:05;;;;;;;2.58;2.28;;;;;;;15.33;86.14;101305.09;5040206;28;20024;-85
2023/07/21 01:04:32;;;;;;;3.42;2.40;;;;;;;15.30;86.11;101305.25;5039727;28;20304;-84
2023/07/21 01:07:03;;;;;;;2.53;2.40;;;;;;;15.27;85.98;101294.00;5039741;28;20071;-84
2023/07/21 01:09:30;;;;;;;3.00;2.65;;;;;;;15.24;86.24;101302.91;5057458;28;20037;-84
2023/07/21 01:11:56;;;;;;;2.60;2.50;;;;;;;15.21;86.50;101295.19;5039359;28;20031;-85
2023/07/21 01:14:21;;;;;;;2.25;2.15;;;;;;;15.18;86.83;101292.69;5039063;28;20029;-84
2023/07/21 01:16:48;;;;;;;2.58;2.45;;;;;;;15.16;87.05;101289.28;5039624;28;20028;-84
2023/07/21 01:19:15;;;;;;;3.72;2.55;;;;;;;15.14;87.40;101286.72;5039594;28;20039;-84
2023/07/21 01:21:51;;;;;;;2.78;2.40;;;;;;;15.10;87.46;101281.69;5039029;28;20307;-84
2023/07/21 01:24:48;;;;;;;2.45;2.35;;;;;;;15.07;87.36;101279.22;5057311;28;20032;-84
2023/07/21 01:27:15;;;;;;;3.00;2.80;;;;;;;15.03;87.45;101275.03;5039233;28;20033;-84
2023/07/21 01:29:43;;;;;;;2.90;2.70;;;;;;;14.99;87.50;101266.44;5038652;28;20036;-84
2023/07/21 01:32:12;;;;;;;3.75;3.45;;;;;;;14.96;87.60;101266.59;5057077;28;20063;-84
2023/07/21 01:34:37;;;;;;;;;;;;;;;14.91;87.49;101266.81;5039088;28;20029;-84
2023/07/21 01:37:04;;;;;;;3.13;2.83;;;;;;;14.87;87.56;101269.72;5038571;28;19923;-84
2023/07/21 01:39:31;;;;;;;4.00;3.00;;;;;;;14.82;88.12;101264.66;5038339;28;20041;-84
2023/07/21 01:42:00;;;;;;;3.50;3.30;;;;;;;14.78;88.24;101263.13;5038978;28;20028;-84
2023/07/21 01:44:25;;;;;;;3.40;3.10;;;;;;;14.77;88.50;101262.28;5038572;28;20017;-84
2023/07/21 01:46:54;;;;;;;3.03;2.83;;;;;;;14.73;88.58;101260.72;5039216;28;20039;-84
2023/07/21 01:49:20;;;;;;;3.40;3.20;;;;;;;14.71;88.28;101254.66;5038490;28;20037;-84
2023/07/21 01:51:52;;;;;;;3.70;3.40;;;;;;;14.70;88.56;101254.78;5038932;28;20136;-84
2023/07/21 01:54:26;;;;;;;3.78;3.47;;;;;;;14.69;88.94;101266.22;5038472;28;20041;-83
2023/07/21 01:57:00;;;;;;;3.60;3.40;;;;;;;14.68;88.70;101264.50;5056737;28;20048;-84
2023/07/21 01:59:26;;;;;;;3.80;3.50;;;;;;;14.66;88.83;101261.09;5056307;28;20024;-84
2023/07/21 02:01:54;;;;;;;4.13;3.80;;;;;;;14.65;89.28;101262.06;5038648;28;20370;-84
2023/07/21 02:04:21;;;;;;;3.97;3.75;;;;;;;14.65;89.16;101262.06;5038106;28;20029;-84
2023/07/21 02:06:47;;;;;;;4.63;4.10;;;;;;;14.64;89.40;101261.19;5035050;28;20033;-84
2023/07/21 02:09:13;;;;;;;3.53;3.33;;;;;;;14.65;89.40;101257.63;5034239;28;20041;-84
2023/07/21 02:11:40;;;;;;;4.00;3.72;;;;;;;14.63;89.39;101256.00;5036066;28;20296;-84
2023/07/21 02:14:06;;;;;;;4.00;3.70;;;;;;;14.62;89.56;101265.69;5035140;28;20336;-84
2023/07/21 02:16:32;;;;;;;3.78;3.50;;;;;;;14.61;89.74;101264.00;5036023;28;20033;-84
2023/07/21 02:18:58;;;;;;;4.82;4.43;;;;;;;14.58;89.90;101272.88;5034922;28;20072;-84
2023/07/21 02:21:24;;;;;;;4.68;4.38;;;;;;;14.56;89.98;101263.34;5033019;28;20033;-84
2023/07/21 02:23:49;;;;;;;3.83;3.63;;;;;;;14.55;89.78;101254.59;5035100;28;20030;-82
2023/07/21 02:26:15;;;;;;;4.47;4.15;;;;;;;14.52;90.17;101253.88;5035011;28;20112;-82
2023/07/21 02:28:41;;;;;;;4.20;3.78;;;;;;;14.51;90.26;101255.66;5034474;28;20026;-82
2023/07/21 02:31:07;;;;;;;4.28;3.88;;;;;;;14.50;90.12;101261.03;5034904;28;20142;-82
2023/07/21 02:33:35;;;;;;;4.50;4.20;;;;;;;14.47;90.21;101255.91;5035598;28;20033;-82
2023/07/21 02:36:03;;;;;;;4.63;4.32;;;;;;;14.44;90.46;101248.97;5027283;28;20041;-82
2023/07/21 02:38:28;;;;;;;4.28;3.95;;;;;;;14.42;90.35;101242.09;5034310;28;20328;-82
2023/07/21 02:40:55;;;;;;;4.22;3.92;;;;;;;14.39;90.55;101243.97;5034511;28;20033;-82
2023/07/21 02:43:23;;;;;;;4.13;3.83;;;;;;;14.38;90.39;101244.03;5034060;28;20035;-82
2023/07/21 02:45:53;;;;;;;4.00;3.70;;;;;;;14.36;90.89;101240.63;5034099;28;20319;-82
2023/07/21 02:48:20;;;;;;;4.15;3.88;;;;;;;14.35;90.91;101247.69;5035247;28;20045;-82
2023/07/21 02:50:53;;;;;;;4.07;3.80;;;;;;;14.36;91.08;101243.25;5034319;28;20299;-82
2023/07/21 02:53:20;;;;;;;4.35;4.05;;;;;;;14.35;90.72;101242.41;5026622;28;20318;-82
2023/07/21 02:55:46;;;;;;;4.45;4.15;;;;;;;14.33;90.67;101241.59;5034387;28;20029;-82
2023/07/21 02:58:14;;;;;;;4.18;3.88;;;;;;;14.27;90.93;101236.66;5034072;28;20209;-82
2023/07/21 03:00:41;;;;;;;4.50;4.20;;;;;;;14.24;90.97;101233.31;5034038;28;20033;-82
2023/07/21 03:03:08;;;;;;;4.57;4.18;;;;;;;14.19;90.98;101237.06;5034114;28;20025;-82
2023/07/21 03:05:35;;;;;;;4.75;4.43;;;;;;;14.16;91.13;101233.72;5033517;28;20232;-82
2023/07/21 03:08:03;;;;;;;4.80;4.40;;;;;;;14.12;91.30;101234.81;5034597;28;20320;-82
2023/07/21 03:10:29;;;;;;;4.15;3.80;;;;;;;14.07;91.59;101232.38;5033230;28;20041;-82
2023/07/21 03:12:55;;;;;;;4.05;3.75;;;;;;;14.04;91.58;101232.53;5032180;28;20271;-82
2023/07/21 03:15:20;;;;;;;3.78;3.58;;;;;;;14.01;91.90;101225.63;5033898;28;20029;-82
2023/07/21 03:17:46;;;;;;;4.45;4.07;;;;;;;14.00;92.12;101228.34;5035612;28;20110;-82
2023/07/21 03:20:12;;;;;;;3.75;3.50;;;;;;;13.97;92.27;101224.09;5034299;28;20323;-82
2023/07/21 03:22:38;;;;;;;3.60;3.25;;;;;;;13.96;92.41;101218.88;5032631;28;20312;-82
2023/07/21 03:25:06;;;;;;;3.58;3.28;;;;;;;13.94;92.29;101212.84;5034033;28;20307;-82
2023/07/21 03:27:35;;;;;;;4.10;3.72;;;;;;;13.94;92.70;101218.13;5033172;28;20025;-82
2023/07/21 03:30:03;;;;;;;;;;;;;;;13.93;92.94;101211.13;5035480;28;20108;-82
2023/07/21 03:32:29;;;;;;;3.40;3.20;;;;;;;13.94;93.05;101204.94;5029582;28;19920;-82
2023/07/21 03:34:55;;;;;;;4.03;3.30;;;;;;;13.93;93.49;101206.72;5033778;28;20033;-82
2023/07/21 03:37:25;;;;;;;3.53;3.22;;;;;;;13.94;93.49;101210.22;5032987;28;20033;-82
2023/07/21 03:39:52;;;;;;;3.50;3.28;;;;;;;13.96;93.78;101211.84;5031681;28;20278;-82
2023/07/21 03:42:18;;;;;;;3.45;3.25;;;;;;;13.99;94.32;101213.47;5032959;28;20068;-82
2023/07/21 03:44:47;;;;;;;3.65;3.45;;;;;;;14.03;94.08;101212.41;5034087;28;20352;-82
2023/07/21 03:47:14;;;;;;;3.78;3.47;;;;;;;14.02;94.03;101211.56;5033278;28;20057;-82
2023/07/21 03:49:40;;;;;;;4.10;3.80;;;;;;;14.01;94.24;101209.00;5033310;28;20033;-82
2023/07/21 03:52:05;;;;;;;3.80;3.60;;;;;;;13.99;94.23;101203.78;5033391;28;20036;-82
2023/07/21 03:54:31;;;;;;;3.92;3.63;;;;;;;13.98;94.29;101206.50;5032784;28;20045;-82
2023/07/21 03:56:56;;;;;;;3.92;3.65;;;;;;;13.97;94.71;101207.41;5033675;28;20247;-82
2023/07/21 03:59:22;;;;;;;3.85;3.55;;;;;;;13.96;94.86;101198.66;5031659;28;20072;-82
2023/07/21 04:01:48;;;;;;;3.50;3.20;;;;;;;13.95;95.15;101199.63;5033781;28;20041;-82
2023/07/21 04:04:15;;;;;;;3.60;3.30;;;;;;;13.95;94.93;101202.25;5041037;28;20357;-82
2023/07/21 04:06:42;;;;;;;4.30;3.75;;;;;;;13.94;95.30;101200.53;5039279;28;20098;-82
2023/07/21 04:09:08;;;;;;;4.20;3.80;;;;;;;13.94;95.52;101197.91;5039985;28;20063;-82
2023/07/21 04:11:34;;;;;;;4.05;3.75;;;;;;;13.95;95.76;101204.88;5040499;28;20041;-82
2023/07/21 04:14:00;;;;;;;4.28;3.83;;;;;;;13.96;96.00;101203.94;5039715;28;20340;-82
2023/07/21 04:16:26;;;;;;;3.60;3.38;;;;;;;13.97;96.21;101197.75;5041094;28;20378;-82
2023/07/21 04:18:52;;;;;;;4.10;3.80;;;;;;;13.99;96.44;101193.25;5031790;28;20033;-82
2023/07/21 04:21:17;;;;;;;3.92;3.63;;;;;;;14.02;96.64;101192.25;5039627;28;20287;-82
2023/07/21 04:23:43;;;;;;;3.85;3.65;;;;;;;14.04;96.75;101195.66;5041152;28;20040;-82
2023/07/21 04:26:11;;;;;;;4.30;4.00;;;;;;;14.07;97.12;101192.03;5039965;28;20199;-82
2023/07/21 04:28:37;;;;;;;3.72;3.53;;;;;;;14.09;97.18;101185.75;5038931;28;20036;-82
2023/07/21 04:31:02;;;;;;;4.32;3.92;;;;;;;14.13;97.11;101192.56;5039580;28;20029;-82
2023/07/21 04:33:28;;;;;;;4.25;3.90;;;;;;;14.16;97.35;101188.94;5039280;28;20036;-82
2023/07/21 04:35:53;;;;;;;4.07;3.78;;;;;;;14.20;97.25;101195.75;5041434;28;20033;-82
2023/07/21 04:38:19;;;;;;;3.70;3.50;;;;;;;14.21;97.05;101194.84;5031196;28;20025;-82
2023/07/21 04:40:45;;;;;;;3.65;3.45;;;;;;;14.23;97.43;101192.13;5039749;28;20087;-82
2023/07/21 04:43:16;;;;;;;4.82;3.22;;;;;;;14.23;97.36;101195.59;5039414;28;20029;-82
2023/07/21 04:45:42;;;;;;;4.93;4.00;;;;;;;14.23;97.43;101187.69;5037334;28;20304;-82
2023/07/21 04:48:08;;;;;;;4.30;4.00;;;;;;;14.23;97.33;101192.13;5037037;28;20383;-82
2023/07/21 04:50:34;;;;;;;4.35;4.05;;;;;;;14.23;97.52;101187.69;5038926;28;20025;-82
2023/07/21 04:53:01;;;;;;;4.05;3.80;;;;;;;14.24;97.62;101184.13;5039768;28;20427;-82
2023/07/21 04:55:27;;;;;;;5.18;4.78;;;;;;;14.24;97.70;101189.38;5038820;28;20054;-82
2023/07/21 04:57:53;;;;;;;4.88;4.47;;;;;;;14.25;97.79;101183.19;5039700;28;20033;-82
2023/07/21 05:00:19;;;;;;;5.13;4.10;;;;;;;14.27;97.91;101185.75;5038794;28;20029;-82
2023/07/21 05:02:44;;;;;;;4.55;4.15;;;;;;;14.29;98.13;101181.25;5031226;28;20040;-82
2023/07/21 05:05:10;;;;;;;4.40;4.00;;;;;;;14.31;98.08;101185.50;5041309;28;20060;-82
2023/07/21 05:07:36;;;;;;;4.57;4.28;;;;;;;14.33;98.49;101188.06;5059931;28;20049;-82
2023/07/21 05:10:02;;;;;;;5.15;4.43;;;;;;;14.34;98.46;101185.38;5042674;28;20028;-82
2023/07/21 05:12:28;;;;;;;4.93;4.53;;;;;;;14.36;98.39;101185.28;5057249;28;20025;-82
2023/07/21 05:14:53;;;;;;;5.28;4.88;;;;;;;14.36;98.54;101183.50;5039372;28;20040;-82
2023/07/21 05:17:19;;;;;;;6.43;5.07;;;;;;;14.38;98.81;101184.28;5038891;28;20039;-82
2023/07/21 05:19:45;;;;;;;5.47;5.00;;;;;;;14.39;99.07;101186.00;5039327;28;20075;-82
2023/07/21 05:22:11;;;;;;;5.57;5.10;;;;;;;14.40;99.07;101185.03;5039636;28;20021;-82
2023/07/21 05:24:37;;;;;;;7.10;5.45;;;;;;;14.44;99.26;101182.25;5038673;28;20032;-82
2023/07/21 05:27:03;;;;;;;10.20;5.15;;;;;;;14.46;99.55;101178.63;5039459;28;20281;-82
2023/07/21 05:29:28;;;;;;;6.68;5.00;;;;;;;14.48;99.22;101178.53;5038366;28;20028;-82
2023/07/21 05:31:54;;;;;;;9.63;5.07;;;;;;;14.49;99.28;101174.97;5039533;28;20035;-82
2023/07/21 05:34:21;;;;;;;6.13;5.47;;;;;;;14.51;99.47;101170.47;5038446;28;20053;-82
2023/07/21 05:36:47;;;;;;;9.02;5.35;;;;;;;14.52;99.29;101177.47;5039291;28;20048;-82
2023/07/21 05:39:13;;;;;;;7.13;5.07;;;;;;;14.54;99.35;101179.06;5039035;28;20362;-82
2023/07/21 05:41:39;;;;;;;5.22;4.72;;;;;;;14.56;99.64;101171.94;5038535;28;20029;-82
2023/07/21 05:44:05;;;;;;;5.80;4.90;;;;;;;14.59;99.54;101174.44;5038971;28;20271;-82
2023/07/21 05:46:31;;;;;;;8.55;5.20;;;;;;;14.61;100.00;101176.13;5038145;28;20033;-82
2023/07/21 05:48:57;;;;;;;5.85;5.25;;;;;;;14.63;99.87;101171.66;5038930;28;20024;-82
2023/07/21 05:51:23;;;;;;;6.15;5.25;;;;;;;14.65;99.66;101181.19;5038208;28;20079;-82
2023/07/21 05:53:48;;;;;;;7.78;5.63;;;;;;;14.68;99.96;101177.53;5038527;28;20027;-82
2023/07/21 05:56:14;;;;;;;6.25;5.55;;;;;;;14.69;100.00;101179.25;5038827;28;20043;-82
2023/07/21 05:58:41;;;;;;;7.40;5.22;;;;;;;14.70;99.93;101179.16;5037934;28;20028;-82
2023/07/21 06:01:10;;;;;;;5.75;5.35;;;;;;;14.72;99.80;101179.09;5037894;28;20405;-82
2023/07/21 06:03:37;;;;;;;6.88;6.35;;;;;;;14.75;99.63;101173.63;5038132;28;20343;-82
2023/07/21 06:06:04;;;;;;;6.25;5.72;;;;;;;14.77;99.62;101163.84;5056472;28;20052;-82
2023/07/21 06:08:30;;;;;;;6.93;6.35;;;;;;;14.80;99.12;101168.13;5038160;28;20123;-82
2023/07/21 06:10:57;;;;;;;6.57;6.03;;;;;;;14.83;99.21;101175.88;5038648;28;20103;-82
2023/07/21 06:13:23;;;;;;;8.23;5.75;;;;;;;14.85;98.92;101180.13;5036022;28;20025;-82
2023/07/21 06:15:49;;;;;;;6.25;5.60;;;;;;;14.88;98.97;101164.16;5038471;28;20198;-82
2023/07/21 06:18:15;;;;;;;7.40;5.57;;;;;;;14.91;98.65;101171.88;5056692;28;20197;-82
2023/07/21 06:20:40;;;;;;;6.72;6.22;;;;;;;14.94;98.79;101177.00;5056656;28;20044;-82
2023/07/21 06:23:06;;;;;;;7.47;6.75;;;;;;;14.97;98.75;101175.97;5055482;28;20024;-82
2023/07/21 06:25:31;;;;;;;6.60;6.05;;;;;;;15.01;98.75;101181.94;5037648;28;20256;-82
2023/07/21 06:27:57;;;;;;;12.68;7.13;;;;;;;15.03;98.57;101178.31;5036362;28;20224;-82
2023/07/21 06:30:22;;;;;;;7.93;6.78;;;;;;;15.06;98.02;101193.97;5039890;28;20040;-82
2023/07/21 06:32:49;;;;;;;6.43;5.80;;;;;;;15.10;97.85;101189.38;5045320;28;20090;-84
2023/07/21 06:35:14;;;;;;;6.57;6.15;;;;;;;15.14;97.90;101189.13;5029500;28;20048;-82
2023/07/21 06:37:40;;;;;;;7.35;5.75;;;;;;;15.18;97.77;101178.41;5036062;28;20033;-82
2023/07/21 06:40:07;;;;;;;7.45;6.18;;;;;;;15.22;97.61;101177.28;5032108;28;20140;-82
2023/07/21 06:42:33;;;;;;;6.22;5.70;;;;;;;15.25;97.81;101177.97;5047358;28;20029;-82
2023/07/21 06:44:59;;;;;;;7.20;6.50;;;;;;;15.29;97.34;101174.22;5029495;28;20117;-82
2023/07/21 06:47:24;;;;;;;6.10;5.63;;;;;;;15.33;96.67;101177.56;5035216;28;20033;-82
2023/07/21 06:49:50;;;;;;;8.45;5.25;;;;;;;15.36;96.37;101180.03;5053170;28;20331;-82
2023/07/21 06:52:16;;;;;;;8.18;4.75;;;;;;;15.39;95.86;101171.94;5036141;28;20088;-82
2023/07/21 06:54:41;;;;;;;5.72;4.43;;;;;;;15.43;95.27;101176.13;5054110;28;20259;-82
2023/07/21 06:57:07;;;;;;;4.75;4.45;;;;;;;15.47;94.76;101175.00;5054390;28;20059;-82
2023/07/21 06:59:34;;;;;;;4.57;4.22;;;;;;;15.52;94.50;101172.97;5036095;28;20226;-82
2023/07/21 07:01:59;;;;;;;4.18;3.78;;;;;;;15.55;93.88;101177.19;5037767;28;20032;-82
2023/07/21 07:04:26;;;;;;;4.65;4.05;;;;;;;15.59;93.58;101169.97;5036138;28;20076;-82
2023/07/21 07:06:55;;;;;;;3.72;3.42;;;;;;;15.61;93.12;101170.72;5054496;28;20052;-83
2023/07/21 07:09:23;;;;;;;3.85;3.17;;;;;;;15.63;92.69;101168.88;5055314;28;20162;-83
2023/07/21 07:11:50;;;;;;;5.30;3.40;;;;;;;15.66;91.98;101169.56;5035893;28;20311;-82
2023/07/21 07:14:15;;;;;;;2.50;2.30;;;;;;;15.68;91.64;101172.94;5035861;28;20043;-82
2023/07/21 07:16:41;;;;;;;2.53;2.40;;;;;;;15.71;90.97;101164.84;5036553;28;20028;-83
2023/07/21 07:19:06;;;;;;;2.95;2.70;;;;;;;15.73;90.71;101168.25;5055269;28;20067;-83
2023/07/21 07:21:32;;;;;;;2.92;2.70;;;;;;;15.75;89.88;101170.81;5036996;28;20025;-82
2023/07/21 07:23:58;;;;;;;2.45;2.25;;;;;;;15.77;89.38;101168.97;5037249;28;20028;-83
2023/07/21 07:26:24;;;;;;;2.28;1.90;;;;;;;15.79;88.52;101164.44;5035459;28;20062;-82
2023/07/21 07:28:49;;;;;;;2.00;1.90;;;;;;;15.82;88.23;101168.69;5023935;28;20052;-82
2023/07/21 07:31:15;;;;;;;2.38;2.17;;;;;;;15.85;88.48;101163.25;5035389;28;20032;-82
2023/07/21 07:33:40;;;;;;;1.80;1.70;;;;;;;15.87;88.13;101159.56;5052844;28;20367;-82
2023/07/21 07:36:06;;;;;;;2.60;2.10;;;;;;;15.91;87.96;101165.53;5034188;28;20036;-82
2023/07/21 07:38:32;;;;;;;2.33;2.13;;;;;;;15.95;88.08;101166.19;5033346;28;20131;-82
2023/07/21 07:41:03;;;;;;;1.95;1.73;;;;;;;15.97;87.64;101166.94;5033680;28;20036;-82
2023/07/21 07:43:29;;;;;;;1.95;1.85;;;;;;;15.98;87.13;101161.59;5030838;28;20033;-82
2023/07/21 07:45:56;;;;;;;1.75;1.65;;;;;;;16.01;87.18;101169.34;5052849;28;20033;-82
2023/07/21 07:48:22;;;;;;;2.10;2.00;;;;;;;16.02;86.54;101168.38;5035159;28;20032;-82
2023/07/21 07:50:47;;;;;;;1.70;1.60;;;;;;;16.05;85.77;101175.28;5035892;28;20032;-82
2023/07/21 07:53:14;;;;;;;2.45;2.20;;;;;;;16.07;84.72;101166.31;5036407;28;20031;-82
2023/07/21 07:55:41;;;;;;;1.85;1.70;;;;;;;16.10;84.70;101163.50;5053855;28;20097;-82
2023/07/21 07:58:08;;;;;;;2.10;2.00;;;;;;;16.13;84.51;101165.13;5036576;28;20344;-82
2023/07/21 08:00:36;;;;;;;2.17;2.08;;;;;;;16.16;84.42;101162.31;5051796;28;20033;-82
2023/07/21 08:03:06;;;;;;;1.80;1.70;;;;;;;16.18;84.75;101156.94;5036628;28;20044;-82
2023/07/21 08:05:32;;;;;;;2.30;2.10;;;;;;;16.20;84.41;101158.53;5036265;28;20287;-82
2023/07/21 08:08:04;;;;;;;2.72;2.22;;;;;;;16.22;84.41;101159.28;5054166;28;20013;-82
2023/07/21 08:10:32;;;;;;;2.85;2.60;;;;;;;16.25;83.59;101164.41;5053984;28;20047;-83
2023/07/21 08:12:59;;;;;;;3.10;2.80;;;;;;;16.29;83.74;101168.53;5054392;28;20082;-82
2023/07/21 08:15:25;;;;;;;3.85;2.65;;;;;;;16.33;83.48;101165.72;5035686;28;20037;-82
2023/07/21 08:17:51;;;;;;;4.72;2.40;;;;;;;16.37;83.69;101162.84;5054527;28;20079;-82
2023/07/21 08:20:18;;;;;;;4.47;2.50;;;;;;;16.41;83.53;101168.75;5053670;28;20108;-82
2023/07/21 08:22:48;;;;;;;3.25;2.95;;;;;;;16.46;81.99;101164.91;5036116;28;20029;-82
2023/07/21 08:25:16;;;;;;;4.07;2.42;;;;;;;16.51;80.77;101162.81;5036407;28;20048;-82
2023/07/21 08:27:41;;;;;;;3.00;2.50;;;;;;;16.56;79.70;101167.84;5035939;28;20029;-82
2023/07/21 08:30:10;;;;;;;5.43;1.90;;;;;;;16.58;78.94;101167.75;5054502;28;20162;-82
2023/07/21 08:32:37;;;;;;;2.45;1.80;;;;;;;16.60;79.47;101172.00;5035647;28;20060;-82
2023/07/21 08:35:03;;;;;;;3.80;1.58;;;;;;;16.62;78.62;101174.56;5054108;28;20036;-82
2023/07/21 08:37:30;;;;;;;1.40;1.30;;;;;;;16.60;79.21;101156.13;5053663;28;20317;-82
2023/07/21 08:39:55;;;;;;;1.50;1.40;;;;;;;16.63;79.61;101165.69;5036378;28;20272;-82
2023/07/21 08:42:23;;;;;;;2.45;1.50;;;;;;;16.66;79.34;101166.34;5035935;28;20029;-82
2023/07/21 08:44:50;;;;;;;1.77;1.02;;;;;;;16.72;79.06;101158.97;5032102;28;20029;-82
2023/07/21 08:47:16;;;;;;;1.20;1.10;;;;;;;16.77;78.83;101164.81;5037039;28;20032;-82
2023/07/21 08:49:41;;;;;;;1.30;1.20;;;;;;;16.80;75.52;101162.84;5039201;28;20040;-82
2023/07/21 08:52:07;;;;;;;1.30;1.15;;;;;;;16.83;76.36;101161.84;5039569;28;20025;-82
2023/07/21 08:54:32;;;;;;;0.95;0.90;;;;;;;16.84;76.83;101156.44;5039190;28;20031;-82
2023/07/21 08:56:58;;;;;;;1.08;0.90;;;;;;;16.88;76.49;101157.97;5039524;28;20029;-82
2023/07/21 08:59:23;;;;;;;0.80;0.80;;;;;;;16.95;76.46;101165.50;5038907;28;20107;-82
2023/07/21 09:01:49;;;;;;;0.80;0.80;;;;;;;17.00;76.82;101148.41;5036699;28;20399;-82
2023/07/21 09:04:23;;;;;;;0.88;0.88;;;;;;;17.10;76.83;101150.47;5057580;28;20083;-82
2023/07/21 09:06:57;;;;;;;1.10;0.90;;;;;;;17.17;76.18;101151.78;5039505;28;20033;-82
2023/07/21 09:09:25;;;;;;;0.82;0.82;;;;;;;17.22;75.88;101160.28;5055454;28;20095;-82
2023/07/21 09:12:02;;;;;;;1.08;1.00;;;;;;;17.24;75.58;101145.16;5049240;28;20045;-82
2023/07/21 09:14:39;;;;;;;2.15;0.77;;;;;;;17.23;75.94;101144.31;5055114;28;20151;-82
2023/07/21 09:17:05;;;;;;;0.60;0.60;;;;;;;17.22;76.12;101144.41;5052497;28;20036;-82
2023/07/21 09:19:38;;;;;;;0.70;0.70;;;;;;;17.21;76.28;101145.38;5038740;28;20118;-82
2023/07/21 09:22:04;;;;;;;0.60;0.60;;;;;;;17.20;76.19;101152.44;5039703;28;20036;-82
2023/07/21 09:24:30;;;;;;;0.93;0.80;;;;;;;17.20;75.97;101141.84;5038712;28;20112;-82
2023/07/21 09:27:13;;;;;;;1.45;0.95;;;;;;;17.24;75.35;101153.09;5037515;28;20032;-82
2023/07/21 09:29:40;;;;;;;1.08;0.98;;;;;;;17.28;74.36;101149.28;5049472;28;20258;-82
2023/07/21 09:32:17;;;;;;;0.80;0.80;;;;;;;17.33;74.83;101151.66;5057311;28;20132;-82
2023/07/21 09:34:58;;;;;;;0.80;0.80;;;;;;;17.37;74.95;101158.44;5056616;28;20302;-82
2023/07/21 09:37:28;;;;;;;1.38;1.20;;;;;;;17.38;74.48;101152.22;5037899;28;20079;-82
2023/07/21 09:39:59;;;;;;;1.42;1.20;;;;;;;17.38;73.89;101146.94;5056490;28;20024;-82
2023/07/21 09:42:26;;;;;;;1.13;1.10;;;;;;;17.38;74.03;101146.94;5057007;28;20036;-82
2023/07/21 09:44:53;;;;;;;0.80;0.80;;;;;;;17.37;74.06;101154.03;5056250;28;20029;-82
2023/07/21 09:47:19;;;;;;;1.25;0.90;;;;;;;17.41;74.55;101158.16;5055753;28;20041;-82
2023/07/21 09:49:48;;;;;;;1.67;1.10;;;;;;;17.43;74.41;101155.44;5038054;28;20105;-82
2023/07/21 09:52:17;;;;;;;7.60;2.50;;;;;;;17.42;76.34;101166.94;5057171;28;20307;-83
2023/07/21 09:54:47;;;;;;;3.50;1.50;;;;;;;17.39;80.61;101164.50;5037002;28;20036;-83
2023/07/21 09:57:16;;;;;;;7.90;2.03;;;;;;;17.30;81.57;101158.00;5038435;28;20320;-84
2023/07/21 09:59:46;;;;;;;2.25;2.05;;;;;;;17.21;82.56;101159.44;5048815;28;20099;-84
2023/07/21 10:02:13;;;;;;;2.53;1.75;;;;;;;17.17;83.94;101162.38;5053910;28;20100;-83
2023/07/21 10:04:38;;;;;;;1.98;1.40;;;;;;;17.12;84.22;101160.03;5052060;28;20025;-83
2023/07/21 10:07:07;;;;;;;2.70;1.52;;;;;;;17.07;85.02;101155.00;5056473;28;20240;-83
2023/07/21 10:09:33;;;;;;;3.10;1.83;;;;;;;17.10;86.36;101163.69;5038165;28;20025;-83
2023/07/21 10:12:14;;;;;;;1.90;1.70;;;;;;;17.10;87.09;101154.00;5037468;28;20073;-83
2023/07/21 10:14:40;;;;;;;3.60;1.88;;;;;;;17.16;87.67;101158.88;5038765;28;20205;-83
2023/07/21 10:17:07;;;;;;;2.25;1.60;;;;;;;17.22;87.26;101160.28;5033966;28;20033;-83
2023/07/21 10:19:41;;;;;;;2.45;1.58;;;;;;;17.25;86.28;101154.81;5036108;28;20036;-83
2023/07/21 10:22:11;;;;;;;1.65;1.50;;;;;;;17.26;86.88;101164.44;5054571;28;20032;-83
2023/07/21 10:24:44;;;;;;;3.55;1.58;;;;;;;17.26;87.16;101157.34;5038130;28;20056;-83
2023/07/21 10:27:19;;;;;;;2.67;1.90;;;;;;;17.26;88.19;101169.72;5049359;28;20089;-83
2023/07/21 10:29:44;;;;;;;1.92;1.75;;;;;;;17.25;88.87;101170.69;5056930;28;20051;-84
2023/07/21 10:32:10;;;;;;;1.92;1.52;;;;;;;17.18;85.16;101172.03;5054916;28;20032;-83
2023/07/21 10:34:45;;;;;;;2.75;1.80;;;;;;;17.17;85.79;101170.31;5055931;28;20043;-83
2023/07/21 10:37:10;;;;;;;1.65;1.55;;;;;;;17.19;85.69;101176.34;5056305;28;20040;-83
2023/07/21 10:39:41;;;;;;;2.03;1.92;;;;;;;17.17;86.79;101171.19;5034721;28;20370;-83
2023/07/21 10:42:09;;;;;;;2.50;1.75;;;;;;;17.16;85.77;101181.84;5037952;28;20306;-83
2023/07/21 10:44:44;;;;;;;1.70;1.60;;;;;;;17.15;85.97;101180.97;5030070;28;20033;-83
2023/07/21 10:47:15;;;;;;;1.60;1.48;;;;;;;17.16;86.21;101180.06;5038637;28;20036;-83
2023/07/21 10:49:41;;;;;;;1.60;1.50;;;;;;;17.18;86.33;101183.44;5055701;28;20389;-83
2023/07/21 10:52:07;;;;;;;1.52;1.42;;;;;;;17.22;86.99;101178.81;5038538;28;20032;-83
2023/07/21 10:54:34;;;;;;;2.58;1.40;;;;;;;17.23;86.25;101176.06;5037777;28;20088;-82
2023/07/21 10:57:01;;;;;;;1.50;1.20;;;;;;;17.26;86.17;101182.97;5037928;28;20059;-84
2023/07/21 10:59:31;;;;;;;1.27;1.10;;;;;;;17.26;85.95;101177.66;5037398;28;20374;-83
2023/07/21 11:01:56;;;;;;;2.38;1.50;;;;;;;17.26;85.32;101183.84;5037885;28;20024;-84
2023/07/21 11:04:23;;;;;;;3.60;1.50;;;;;;;17.26;84.10;101188.25;5054052;28;20100;-83
2023/07/21 11:06:57;;;;;;;1.50;1.40;;;;;;;17.25;84.76;101190.06;5034506;28;20049;-83
2023/07/21 11:09:23;;;;;;;2.25;1.23;;;;;;;17.23;83.73;101188.47;5031675;28;20060;-83
2023/07/21 11:11:51;;;;;;;1.50;1.40;;;;;;;17.17;81.02;101188.84;5029034;28;20032;-83
2023/07/21 11:14:23;;;;;;;1.95;1.40;;;;;;;17.19;82.13;101189.59;5032392;28;20152;-83
2023/07/21 11:17:03;;;;;;;2.00;1.90;;;;;;;17.19;82.75;101189.59;5024779;28;20032;-83
2023/07/21 11:19:33;;;;;;;3.22;2.22;;;;;;;17.18;82.05;101187.91;5030950;28;20107;-83
2023/07/21 11:21:59;;;;;;;3.03;2.05;;;;;;;17.21;82.19;101188.56;5037158;28;20028;-84
2023/07/21 11:24:27;;;;;;;3.15;2.58;;;;;;;17.26;82.48;101189.13;5034209;28;20033;-84
2023/07/21 11:27:15;;;;;;;2.70;2.50;;;;;;;17.29;82.69;101187.22;5035338;28;20061;-84